sensor_id;sensor_type;location;lat;lon;timestamp;P1;durP1;ratioP1;P2;durP2;ratioP2
23680;SDS011;62915;50.832;4.462;2023-10-19T00:01:13;8.38;;;3.05;;
23680;SDS011;62915;50.832;4.462;2023-10-19T00:03:40;8.23;;;3.17;;
23680;SDS011;62915;50.832;4.462;2023-10-19T00:06:06;8.07;;;2.60;;
23680;SDS011;62915;50.832;4.462;2023-10-19T00:08:32;8.15;;;3.03;;
23680;SDS011;62915;50.832;4.462;2023-10-19T00:11:17;5.20;;;2.65;;
23680;SDS011;62915;50.832;4.462;2023-10-19T00:13:51;9.52;;;2.92;;
23680;SDS011;62915;50.832;4.462;2023-10-19T00:16:23;5.22;;;2.72;;
23680;SDS011;62915;50.832;4.462;2023-10-19T00:18:53;6.47;;;2.45;;
23680;SDS011;62915;50.832;4.462;2023-10-19T00:21:24;8.77;;;2.70;;
23680;SDS011;62915;50.832;4.462;2023-10-19T00:23:51;9.23;;;2.95;;
23680;SDS011;62915;50.832;4.462;2023-10-19T00:26:26;8.82;;;3.72;;
23680;SDS011;62915;50.832;4.462;2023-10-19T00:28:54;7.40;;;2.97;;
23680;SDS011;62915;50.832;4.462;2023-10-19T00:31:24;3.88;;;2.28;;
23680;SDS011;62915;50.832;4.462;2023-10-19T00:33:53;5.53;;;2.33;;
23680;SDS011;62915;50.832;4.462;2023-10-19T00:36:20;4.75;;;2.22;;
23680;SDS011;62915;50.832;4.462;2023-10-19T00:38:47;5.80;;;2.05;;
23680;SDS011;62915;50.832;4.462;2023-10-19T00:41:25;4.05;;;1.88;;
23680;SDS011;62915;50.832;4.462;2023-10-19T00:43:58;7.80;;;1.75;;
23680;SDS011;62915;50.832;4.462;2023-10-19T00:46:37;7.05;;;1.88;;
23680;SDS011;62915;50.832;4.462;2023-10-19T00:49:08;4.32;;;1.65;;
23680;SDS011;62915;50.832;4.462;2023-10-19T00:51:48;6.68;;;1.60;;
23680;SDS011;62915;50.832;4.462;2023-10-19T00:54:44;4.72;;;1.35;;
23680;SDS011;62915;50.832;4.462;2023-10-19T00:57:17;3.90;;;1.50;;
23680;SDS011;62915;50.832;4.462;2023-10-19T00:59:57;9.27;;;1.63;;
23680;SDS011;62915;50.832;4.462;2023-10-19T01:02:47;3.38;;;1.65;;
23680;SDS011;62915;50.832;4.462;2023-10-19T01:05:16;5.45;;;1.73;;
23680;SDS011;62915;50.832;4.462;2023-10-19T01:07:47;5.88;;;1.27;;
23680;SDS011;62915;50.832;4.462;2023-10-19T01:10:21;5.63;;;1.50;;
23680;SDS011;62915;50.832;4.462;2023-10-19T01:12:48;6.47;;;1.10;;
23680;SDS011;62915;50.832;4.462;2023-10-19T01:15:19;3.60;;;0.98;;
23680;SDS011;62915;50.832;4.462;2023-10-19T01:17:58;6.40;;;1.20;;
23680;SDS011;62915;50.832;4.462;2023-10-19T01:20:27;4.70;;;1.30;;
23680;SDS011;62915;50.832;4.462;2023-10-19T01:23:03;4.88;;;1.02;;
23680;SDS011;62915;50.832;4.462;2023-10-19T01:25:46;3.70;;;1.10;;
23680;SDS011;62915;50.832;4.462;2023-10-19T01:28:22;6.38;;;1.17;;
23680;SDS011;62915;50.832;4.462;2023-10-19T01:31:20;4.55;;;1.25;;
23680;SDS011;62915;50.832;4.462;2023-10-19T01:33:52;3.63;;;0.95;;
23680;SDS011;62915;50.832;4.462;2023-10-19T01:36:21;3.63;;;1.10;;
23680;SDS011;62915;50.832;4.462;2023-10-19T01:38:48;4.25;;;1.17;;
23680;SDS011;62915;50.832;4.462;2023-10-19T01:41:14;8.38;;;1.13;;
23680;SDS011;62915;50.832;4.462;2023-10-19T01:43:44;4.85;;;1.08;;
23680;SDS011;62915;50.832;4.462;2023-10-19T01:46:14;3.33;;;0.73;;
23680;SDS011;62915;50.832;4.462;2023-10-19T01:48:51;3.10;;;1.00;;
23680;SDS011;62915;50.832;4.462;2023-10-19T01:51:22;4.70;;;1.17;;
23680;SDS011;62915;50.832;4.462;2023-10-19T01:53:49;4.88;;;1.20;;
23680;SDS011;62915;50.832;4.462;2023-10-19T01:56:16;6.60;;;1.10;;
23680;SDS011;62915;50.832;4.462;2023-10-19T01:58:43;9.10;;;1.08;;
23680;SDS011;62915;50.832;4.462;2023-10-19T02:01:13;7.82;;;1.17;;
23680;SDS011;62915;50.832;4.462;2023-10-19T02:03:53;9.15;;;1.38;;
23680;SDS011;62915;50.832;4.462;2023-10-19T02:06:20;8.38;;;1.40;;
23680;SDS011;62915;50.832;4.462;2023-10-19T02:08:52;4.55;;;0.90;;
23680;SDS011;62915;50.832;4.462;2023-10-19T02:11:25;9.50;;;1.50;;
23680;SDS011;62915;50.832;4.462;2023-10-19T02:13:53;7.60;;;1.13;;
23680;SDS011;62915;50.832;4.462;2023-10-19T02:16:21;7.60;;;1.40;;
23680;SDS011;62915;50.832;4.462;2023-10-19T02:18:48;7.07;;;1.15;;
23680;SDS011;62915;50.832;4.462;2023-10-19T02:21:15;7.00;;;1.77;;
23680;SDS011;62915;50.832;4.462;2023-10-19T02:23:47;7.60;;;1.65;;
23680;SDS011;62915;50.832;4.462;2023-10-19T02:26:17;9.63;;;1.70;;
23680;SDS011;62915;50.832;4.462;2023-10-19T02:28:45;8.43;;;1.55;;
23680;SDS011;62915;50.832;4.462;2023-10-19T02:31:17;6.45;;;1.30;;
23680;SDS011;62915;50.832;4.462;2023-10-19T02:33:49;8.07;;;1.73;;
23680;SDS011;62915;50.832;4.462;2023-10-19T02:36:26;4.88;;;1.20;;
23680;SDS011;62915;50.832;4.462;2023-10-19T02:39:02;5.82;;;1.40;;
23680;SDS011;62915;50.832;4.462;2023-10-19T02:41:32;10.23;;;2.05;;
23680;SDS011;62915;50.832;4.462;2023-10-19T02:44:08;9.57;;;1.75;;
23680;SDS011;62915;50.832;4.462;2023-10-19T02:46:39;7.70;;;1.70;;
23680;SDS011;62915;50.832;4.462;2023-10-19T02:49:07;9.50;;;1.58;;
23680;SDS011;62915;50.832;4.462;2023-10-19T02:51:37;8.48;;;1.33;;
23680;SDS011;62915;50.832;4.462;2023-10-19T02:54:04;9.25;;;1.50;;
23680;SDS011;62915;50.832;4.462;2023-10-19T02:56:32;9.60;;;2.25;;
23680;SDS011;62915;50.832;4.462;2023-10-19T02:59:00;9.70;;;1.65;;
23680;SDS011;62915;50.832;4.462;2023-10-19T03:01:29;9.20;;;1.40;;
23680;SDS011;62915;50.832;4.462;2023-10-19T03:03:57;5.65;;;1.27;;
23680;SDS011;62915;50.832;4.462;2023-10-19T03:06:25;9.50;;;1.52;;
23680;SDS011;62915;50.832;4.462;2023-10-19T03:08:56;12.80;;;2.30;;
23680;SDS011;62915;50.832;4.462;2023-10-19T03:11:30;10.35;;;2.10;;
23680;SDS011;62915;50.832;4.462;2023-10-19T03:13:58;7.25;;;1.75;;
23680;SDS011;62915;50.832;4.462;2023-10-19T03:16:25;8.43;;;1.90;;
23680;SDS011;62915;50.832;4.462;2023-10-19T03:18:55;9.05;;;2.10;;
23680;SDS011;62915;50.832;4.462;2023-10-19T03:21:21;7.85;;;1.70;;
23680;SDS011;62915;50.832;4.462;2023-10-19T03:23:52;8.70;;;2.42;;
23680;SDS011;62915;50.832;4.462;2023-10-19T03:26:18;12.00;;;2.03;;
23680;SDS011;62915;50.832;4.462;2023-10-19T03:28:55;8.27;;;1.70;;
23680;SDS011;62915;50.832;4.462;2023-10-19T03:31:25;8.82;;;1.75;;
23680;SDS011;62915;50.832;4.462;2023-10-19T03:33:51;8.35;;;1.73;;
23680;SDS011;62915;50.832;4.462;2023-10-19T03:36:23;9.65;;;1.92;;
23680;SDS011;62915;50.832;4.462;2023-10-19T03:38:50;6.47;;;1.70;;
23680;SDS011;62915;50.832;4.462;2023-10-19T03:41:18;11.35;;;2.03;;
23680;SDS011;62915;50.832;4.462;2023-10-19T03:46:22;9.77;;;1.70;;
23680;SDS011;62915;50.832;4.462;2023-10-19T03:48:56;7.70;;;1.60;;
23680;SDS011;62915;50.832;4.462;2023-10-19T03:51:36;9.35;;;1.98;;
23680;SDS011;62915;50.832;4.462;2023-10-19T03:54:05;11.18;;;1.80;;
23680;SDS011;62915;50.832;4.462;2023-10-19T03:56:48;13.35;;;1.88;;
23680;SDS011;62915;50.832;4.462;2023-10-19T03:59:15;8.15;;;1.63;;
23680;SDS011;62915;50.832;4.462;2023-10-19T04:01:42;8.52;;;2.10;;
23680;SDS011;62915;50.832;4.462;2023-10-19T04:04:08;9.57;;;1.92;;
23680;SDS011;62915;50.832;4.462;2023-10-19T04:06:38;9.68;;;2.10;;
23680;SDS011;62915;50.832;4.462;2023-10-19T04:09:19;9.63;;;1.80;;
23680;SDS011;62915;50.832;4.462;2023-10-19T04:11:45;7.68;;;1.88;;
23680;SDS011;62915;50.832;4.462;2023-10-19T04:14:14;8.95;;;1.90;;
23680;SDS011;62915;50.832;4.462;2023-10-19T04:16:40;12.65;;;2.55;;
23680;SDS011;62915;50.832;4.462;2023-10-19T04:19:10;9.48;;;2.35;;
23680;SDS011;62915;50.832;4.462;2023-10-19T04:21:36;9.27;;;2.20;;
23680;SDS011;62915;50.832;4.462;2023-10-19T04:24:07;9.50;;;1.75;;
23680;SDS011;62915;50.832;4.462;2023-10-19T04:26:34;10.70;;;2.33;;
23680;SDS011;62915;50.832;4.462;2023-10-19T04:29:03;9.07;;;1.92;;
23680;SDS011;62915;50.832;4.462;2023-10-19T04:31:37;15.13;;;2.33;;
23680;SDS011;62915;50.832;4.462;2023-10-19T04:34:14;6.68;;;1.88;;
23680;SDS011;62915;50.832;4.462;2023-10-19T04:36:41;9.93;;;1.70;;
23680;SDS011;62915;50.832;4.462;2023-10-19T04:39:08;16.60;;;2.25;;
23680;SDS011;62915;50.832;4.462;2023-10-19T04:41:39;13.35;;;2.00;;
23680;SDS011;62915;50.832;4.462;2023-10-19T04:44:06;14.38;;;2.25;;
23680;SDS011;62915;50.832;4.462;2023-10-19T04:46:33;11.38;;;2.20;;
23680;SDS011;62915;50.832;4.462;2023-10-19T04:48:59;4.35;;;1.45;;
23680;SDS011;62915;50.832;4.462;2023-10-19T04:51:27;15.68;;;2.30;;
23680;SDS011;62915;50.832;4.462;2023-10-19T04:53:53;9.75;;;1.95;;
23680;SDS011;62915;50.832;4.462;2023-10-19T04:56:20;10.98;;;1.92;;
23680;SDS011;62915;50.832;4.462;2023-10-19T04:58:46;8.52;;;1.90;;
23680;SDS011;62915;50.832;4.462;2023-10-19T05:01:13;9.48;;;2.00;;
23680;SDS011;62915;50.832;4.462;2023-10-19T05:03:41;8.50;;;2.50;;
23680;SDS011;62915;50.832;4.462;2023-10-19T05:06:07;8.85;;;2.50;;
23680;SDS011;62915;50.832;4.462;2023-10-19T05:08:34;8.38;;;2.40;;
23680;SDS011;62915;50.832;4.462;2023-10-19T05:11:02;13.40;;;2.80;;
23680;SDS011;62915;50.832;4.462;2023-10-19T05:13:30;10.85;;;1.90;;
23680;SDS011;62915;50.832;4.462;2023-10-19T05:15:57;15.23;;;2.50;;
23680;SDS011;62915;50.832;4.462;2023-10-19T05:18:24;12.18;;;2.20;;
23680;SDS011;62915;50.832;4.462;2023-10-19T05:20:54;12.60;;;2.83;;
23680;SDS011;62915;50.832;4.462;2023-10-19T05:23:23;9.68;;;2.13;;
23680;SDS011;62915;50.832;4.462;2023-10-19T05:25:50;12.02;;;2.55;;
23680;SDS011;62915;50.832;4.462;2023-10-19T05:28:17;13.48;;;2.08;;
23680;SDS011;62915;50.832;4.462;2023-10-19T05:30:44;9.45;;;2.33;;
23680;SDS011;62915;50.832;4.462;2023-10-19T05:33:10;8.43;;;2.08;;
23680;SDS011;62915;50.832;4.462;2023-10-19T05:35:36;7.35;;;1.88;;
23680;SDS011;62915;50.832;4.462;2023-10-19T05:38:08;10.80;;;2.05;;
23680;SDS011;62915;50.832;4.462;2023-10-19T05:40:34;10.10;;;2.25;;
23680;SDS011;62915;50.832;4.462;2023-10-19T05:43:00;10.07;;;2.30;;
23680;SDS011;62915;50.832;4.462;2023-10-19T05:45:27;10.50;;;2.42;;
23680;SDS011;62915;50.832;4.462;2023-10-19T05:47:55;10.57;;;2.28;;
23680;SDS011;62915;50.832;4.462;2023-10-19T05:50:22;13.25;;;1.98;;
23680;SDS011;62915;50.832;4.462;2023-10-19T05:52:52;13.13;;;2.35;;
23680;SDS011;62915;50.832;4.462;2023-10-19T05:55:18;7.10;;;1.73;;
23680;SDS011;62915;50.832;4.462;2023-10-19T05:57:49;17.65;;;2.15;;
23680;SDS011;62915;50.832;4.462;2023-10-19T06:00:15;12.85;;;2.85;;
23680;SDS011;62915;50.832;4.462;2023-10-19T06:02:43;10.20;;;1.95;;
23680;SDS011;62915;50.832;4.462;2023-10-19T06:05:10;11.20;;;2.30;;
23680;SDS011;62915;50.832;4.462;2023-10-19T06:07:37;16.08;;;2.13;;
23680;SDS011;62915;50.832;4.462;2023-10-19T06:10:03;8.75;;;2.45;;
23680;SDS011;62915;50.832;4.462;2023-10-19T06:12:32;15.82;;;2.38;;
23680;SDS011;62915;50.832;4.462;2023-10-19T06:15:01;14.75;;;2.88;;
23680;SDS011;62915;50.832;4.462;2023-10-19T06:17:28;11.05;;;2.28;;
23680;SDS011;62915;50.832;4.462;2023-10-19T06:19:54;11.20;;;2.08;;
23680;SDS011;62915;50.832;4.462;2023-10-19T06:22:20;9.50;;;2.00;;
23680;SDS011;62915;50.832;4.462;2023-10-19T06:24:47;11.13;;;2.17;;
23680;SDS011;62915;50.832;4.462;2023-10-19T06:27:13;11.82;;;2.67;;
23680;SDS011;62915;50.832;4.462;2023-10-19T06:29:40;12.95;;;2.03;;
23680;SDS011;62915;50.832;4.462;2023-10-19T06:32:06;9.75;;;2.08;;
23680;SDS011;62915;50.832;4.462;2023-10-19T06:34:33;13.48;;;2.50;;
23680;SDS011;62915;50.832;4.462;2023-10-19T06:36:58;9.80;;;2.45;;
23680;SDS011;62915;50.832;4.462;2023-10-19T06:39:25;11.73;;;2.15;;
23680;SDS011;62915;50.832;4.462;2023-10-19T06:41:52;12.95;;;2.70;;
23680;SDS011;62915;50.832;4.462;2023-10-19T06:44:17;15.10;;;2.70;;
23680;SDS011;62915;50.832;4.462;2023-10-19T06:46:43;17.52;;;2.65;;
23680;SDS011;62915;50.832;4.462;2023-10-19T06:49:11;8.10;;;1.90;;
23680;SDS011;62915;50.832;4.462;2023-10-19T06:51:37;7.97;;;2.45;;
23680;SDS011;62915;50.832;4.462;2023-10-19T06:54:03;14.07;;;2.30;;
23680;SDS011;62915;50.832;4.462;2023-10-19T06:56:31;13.98;;;2.90;;
23680;SDS011;62915;50.832;4.462;2023-10-19T06:59:02;9.80;;;1.80;;
23680;SDS011;62915;50.832;4.462;2023-10-19T07:01:30;11.95;;;2.10;;
23680;SDS011;62915;50.832;4.462;2023-10-19T07:03:57;12.90;;;2.13;;
23680;SDS011;62915;50.832;4.462;2023-10-19T07:06:23;18.27;;;2.63;;
23680;SDS011;62915;50.832;4.462;2023-10-19T07:08:49;11.30;;;2.63;;
23680;SDS011;62915;50.832;4.462;2023-10-19T07:11:15;11.73;;;2.20;;
23680;SDS011;62915;50.832;4.462;2023-10-19T07:13:42;16.88;;;2.70;;
23680;SDS011;62915;50.832;4.462;2023-10-19T07:16:12;12.20;;;2.38;;
23680;SDS011;62915;50.832;4.462;2023-10-19T07:18:39;11.52;;;2.40;;
23680;SDS011;62915;50.832;4.462;2023-10-19T07:21:05;12.95;;;2.83;;
23680;SDS011;62915;50.832;4.462;2023-10-19T07:23:35;14.57;;;2.47;;
23680;SDS011;62915;50.832;4.462;2023-10-19T07:26:05;12.52;;;2.97;;
23680;SDS011;62915;50.832;4.462;2023-10-19T07:28:32;14.52;;;2.75;;
23680;SDS011;62915;50.832;4.462;2023-10-19T07:31:12;17.83;;;3.47;;
23680;SDS011;62915;50.832;4.462;2023-10-19T07:33:40;15.13;;;2.75;;
23680;SDS011;62915;50.832;4.462;2023-10-19T07:36:15;12.10;;;2.60;;
23680;SDS011;62915;50.832;4.462;2023-10-19T07:38:43;13.32;;;2.55;;
23680;SDS011;62915;50.832;4.462;2023-10-19T07:41:11;19.77;;;3.30;;
23680;SDS011;62915;50.832;4.462;2023-10-19T07:43:37;12.48;;;3.05;;
23680;SDS011;62915;50.832;4.462;2023-10-19T07:46:03;14.18;;;3.00;;
23680;SDS011;62915;50.832;4.462;2023-10-19T07:48:29;18.27;;;3.17;;
23680;SDS011;62915;50.832;4.462;2023-10-19T07:50:54;15.80;;;3.88;;
23680;SDS011;62915;50.832;4.462;2023-10-19T07:53:20;12.98;;;3.03;;
23680;SDS011;62915;50.832;4.462;2023-10-19T07:55:47;18.88;;;2.38;;
23680;SDS011;62915;50.832;4.462;2023-10-19T07:58:12;20.80;;;3.38;;
23680;SDS011;62915;50.832;4.462;2023-10-19T08:00:38;17.50;;;3.00;;
23680;SDS011;62915;50.832;4.462;2023-10-19T08:03:04;18.98;;;3.40;;
23680;SDS011;62915;50.832;4.462;2023-10-19T08:05:31;15.30;;;3.25;;
23680;SDS011;62915;50.832;4.462;2023-10-19T08:07:58;13.50;;;2.95;;
23680;SDS011;62915;50.832;4.462;2023-10-19T08:10:25;13.50;;;3.05;;
23680;SDS011;62915;50.832;4.462;2023-10-19T08:12:54;14.30;;;2.92;;
23680;SDS011;62915;50.832;4.462;2023-10-19T08:15:20;16.55;;;3.05;;
23680;SDS011;62915;50.832;4.462;2023-10-19T08:17:48;17.40;;;3.40;;
23680;SDS011;62915;50.832;4.462;2023-10-19T08:20:15;18.02;;;2.95;;
23680;SDS011;62915;50.832;4.462;2023-10-19T08:22:42;16.02;;;3.53;;
23680;SDS011;62915;50.832;4.462;2023-10-19T08:25:13;14.95;;;3.03;;
23680;SDS011;62915;50.832;4.462;2023-10-19T08:27:42;16.50;;;2.67;;
23680;SDS011;62915;50.832;4.462;2023-10-19T08:30:14;13.63;;;3.13;;
23680;SDS011;62915;50.832;4.462;2023-10-19T08:32:43;15.57;;;2.65;;
23680;SDS011;62915;50.832;4.462;2023-10-19T08:35:13;15.65;;;2.67;;
23680;SDS011;62915;50.832;4.462;2023-10-19T08:37:39;15.27;;;3.03;;
23680;SDS011;62915;50.832;4.462;2023-10-19T08:40:09;13.80;;;3.03;;
23680;SDS011;62915;50.832;4.462;2023-10-19T08:42:46;13.13;;;3.20;;
23680;SDS011;62915;50.832;4.462;2023-10-19T08:45:13;14.30;;;3.60;;
23680;SDS011;62915;50.832;4.462;2023-10-19T08:50:22;22.02;;;3.25;;
23680;SDS011;62915;50.832;4.462;2023-10-19T08:52:50;17.55;;;3.15;;
23680;SDS011;62915;50.832;4.462;2023-10-19T08:55:20;18.02;;;3.08;;
23680;SDS011;62915;50.832;4.462;2023-10-19T08:57:46;18.33;;;3.70;;
23680;SDS011;62915;50.832;4.462;2023-10-19T09:00:16;16.75;;;2.70;;
23680;SDS011;62915;50.832;4.462;2023-10-19T09:02:47;14.90;;;2.97;;
23680;SDS011;62915;50.832;4.462;2023-10-19T09:05:13;16.58;;;3.28;;
23680;SDS011;62915;50.832;4.462;2023-10-19T09:07:47;18.55;;;2.97;;
23680;SDS011;62915;50.832;4.462;2023-10-19T09:10:20;15.60;;;3.97;;
23680;SDS011;62915;50.832;4.462;2023-10-19T09:12:58;16.02;;;3.03;;
23680;SDS011;62915;50.832;4.462;2023-10-19T09:15:29;16.08;;;2.83;;
23680;SDS011;62915;50.832;4.462;2023-10-19T09:17:57;14.27;;;2.97;;
23680;SDS011;62915;50.832;4.462;2023-10-19T09:20:24;11.73;;;2.55;;
23680;SDS011;62915;50.832;4.462;2023-10-19T09:22:55;15.57;;;2.97;;
23680;SDS011;62915;50.832;4.462;2023-10-19T09:25:23;15.00;;;2.95;;
23680;SDS011;62915;50.832;4.462;2023-10-19T09:27:49;14.82;;;3.38;;
23680;SDS011;62915;50.832;4.462;2023-10-19T09:30:17;17.55;;;3.10;;
23680;SDS011;62915;50.832;4.462;2023-10-19T09:32:46;16.35;;;2.85;;
23680;SDS011;62915;50.832;4.462;2023-10-19T09:35:13;10.32;;;2.75;;
23680;SDS011;62915;50.832;4.462;2023-10-19T09:37:43;11.88;;;2.75;;
23680;SDS011;62915;50.832;4.462;2023-10-19T09:40:09;11.85;;;2.72;;
23680;SDS011;62915;50.832;4.462;2023-10-19T09:42:42;13.52;;;3.25;;
23680;SDS011;62915;50.832;4.462;2023-10-19T09:45:12;17.95;;;3.15;;
23680;SDS011;62915;50.832;4.462;2023-10-19T09:47:45;14.25;;;3.55;;
23680;SDS011;62915;50.832;4.462;2023-10-19T09:50:14;13.07;;;2.95;;
23680;SDS011;62915;50.832;4.462;2023-10-19T09:52:40;14.73;;;2.90;;
23680;SDS011;62915;50.832;4.462;2023-10-19T09:55:29;16.45;;;3.53;;
23680;SDS011;62915;50.832;4.462;2023-10-19T09:58:02;16.42;;;3.42;;
23680;SDS011;62915;50.832;4.462;2023-10-19T10:00:49;13.70;;;2.88;;
23680;SDS011;62915;50.832;4.462;2023-10-19T10:06:07;13.30;;;3.17;;
23680;SDS011;62915;50.832;4.462;2023-10-19T10:08:35;15.40;;;2.92;;
23680;SDS011;62915;50.832;4.462;2023-10-19T10:13:50;15.40;;;2.90;;
23680;SDS011;62915;50.832;4.462;2023-10-19T10:16:18;17.33;;;3.33;;
23680;SDS011;62915;50.832;4.462;2023-10-19T10:18:47;13.18;;;2.88;;
23680;SDS011;62915;50.832;4.462;2023-10-19T10:23:48;11.27;;;2.30;;
23680;SDS011;62915;50.832;4.462;2023-10-19T10:26:25;14.90;;;2.88;;
23680;SDS011;62915;50.832;4.462;2023-10-19T10:29:14;15.88;;;2.40;;
23680;SDS011;62915;50.832;4.462;2023-10-19T10:31:47;11.38;;;2.75;;
23680;SDS011;62915;50.832;4.462;2023-10-19T10:36:59;15.02;;;3.53;;
23680;SDS011;62915;50.832;4.462;2023-10-19T10:39:30;12.52;;;2.80;;
23680;SDS011;62915;50.832;4.462;2023-10-19T10:42:01;11.75;;;2.78;;
23680;SDS011;62915;50.832;4.462;2023-10-19T10:44:39;13.55;;;2.72;;
23680;SDS011;62915;50.832;4.462;2023-10-19T10:47:19;20.02;;;2.88;;
23680;SDS011;62915;50.832;4.462;2023-10-19T10:55:08;13.35;;;2.35;;
23680;SDS011;62915;50.832;4.462;2023-10-19T10:57:39;14.40;;;2.80;;
23680;SDS011;62915;50.832;4.462;2023-10-19T11:00:12;14.68;;;2.85;;
23680;SDS011;62915;50.832;4.462;2023-10-19T11:02:43;16.02;;;2.60;;
23680;SDS011;62915;50.832;4.462;2023-10-19T11:05:15;11.73;;;2.30;;
23680;SDS011;62915;50.832;4.462;2023-10-19T11:10:30;12.63;;;2.85;;
23680;SDS011;62915;50.832;4.462;2023-10-19T11:13:15;12.32;;;3.13;;
23680;SDS011;62915;50.832;4.462;2023-10-19T11:15:49;10.65;;;2.45;;
23680;SDS011;62915;50.832;4.462;2023-10-19T11:21:11;15.98;;;3.08;;
23680;SDS011;62915;50.832;4.462;2023-10-19T11:23:41;14.38;;;2.60;;
23680;SDS011;62915;50.832;4.462;2023-10-19T11:26:13;15.65;;;2.75;;
23680;SDS011;62915;50.832;4.462;2023-10-19T11:28:45;13.15;;;2.47;;
23680;SDS011;62915;50.832;4.462;2023-10-19T11:31:22;12.68;;;2.67;;
23680;SDS011;62915;50.832;4.462;2023-10-19T11:33:54;11.98;;;2.63;;
23680;SDS011;62915;50.832;4.462;2023-10-19T11:36:26;10.02;;;2.10;;
23680;SDS011;62915;50.832;4.462;2023-10-19T11:38:52;12.55;;;2.63;;
23680;SDS011;62915;50.832;4.462;2023-10-19T11:41:18;15.60;;;2.97;;
23680;SDS011;62915;50.832;4.462;2023-10-19T11:43:47;13.40;;;2.85;;
23680;SDS011;62915;50.832;4.462;2023-10-19T11:46:19;13.98;;;2.63;;
23680;SDS011;62915;50.832;4.462;2023-10-19T11:48:47;11.77;;;2.40;;
23680;SDS011;62915;50.832;4.462;2023-10-19T11:51:13;9.95;;;2.30;;
23680;SDS011;62915;50.832;4.462;2023-10-19T11:53:42;9.50;;;2.33;;
23680;SDS011;62915;50.832;4.462;2023-10-19T11:56:14;12.23;;;2.28;;
23680;SDS011;62915;50.832;4.462;2023-10-19T11:58:43;8.80;;;2.25;;
23680;SDS011;62915;50.832;4.462;2023-10-19T12:01:13;11.85;;;2.58;;
23680;SDS011;62915;50.832;4.462;2023-10-19T12:03:46;10.02;;;2.20;;
23680;SDS011;62915;50.832;4.462;2023-10-19T12:06:17;7.85;;;2.72;;
23680;SDS011;62915;50.832;4.462;2023-10-19T12:08:50;7.65;;;2.20;;
23680;SDS011;62915;50.832;4.462;2023-10-19T12:11:22;8.27;;;2.22;;
23680;SDS011;62915;50.832;4.462;2023-10-19T12:13:51;8.60;;;2.00;;
23680;SDS011;62915;50.832;4.462;2023-10-19T12:16:21;7.50;;;2.22;;
23680;SDS011;62915;50.832;4.462;2023-10-19T12:18:49;7.88;;;1.95;;
23680;SDS011;62915;50.832;4.462;2023-10-19T12:21:15;11.05;;;2.40;;
23680;SDS011;62915;50.832;4.462;2023-10-19T12:23:43;5.22;;;1.80;;
23680;SDS011;62915;50.832;4.462;2023-10-19T12:26:09;4.97;;;1.73;;
23680;SDS011;62915;50.832;4.462;2023-10-19T12:28:38;4.28;;;1.63;;
23680;SDS011;62915;50.832;4.462;2023-10-19T12:31:05;8.63;;;1.55;;
23680;SDS011;62915;50.832;4.462;2023-10-19T12:33:34;4.40;;;1.48;;
23680;SDS011;62915;50.832;4.462;2023-10-19T12:36:01;7.90;;;2.03;;
23680;SDS011;62915;50.832;4.462;2023-10-19T12:38:43;7.25;;;1.88;;
23680;SDS011;62915;50.832;4.462;2023-10-19T12:41:09;5.88;;;1.92;;
23680;SDS011;62915;50.832;4.462;2023-10-19T12:43:34;5.07;;;1.70;;
23680;SDS011;62915;50.832;4.462;2023-10-19T12:46:00;7.10;;;1.77;;
23680;SDS011;62915;50.832;4.462;2023-10-19T12:48:26;7.80;;;1.83;;
23680;SDS011;62915;50.832;4.462;2023-10-19T12:50:58;3.45;;;1.50;;
23680;SDS011;62915;50.832;4.462;2023-10-19T12:53:26;7.07;;;1.40;;
23680;SDS011;62915;50.832;4.462;2023-10-19T12:55:52;4.97;;;1.60;;
23680;SDS011;62915;50.832;4.462;2023-10-19T12:58:18;7.30;;;1.60;;
23680;SDS011;62915;50.832;4.462;2023-10-19T13:00:47;5.55;;;1.45;;
23680;SDS011;62915;50.832;4.462;2023-10-19T13:03:14;3.83;;;1.52;;
23680;SDS011;62915;50.832;4.462;2023-10-19T13:05:41;3.63;;;1.25;;
23680;SDS011;62915;50.832;4.462;2023-10-19T13:08:12;2.28;;;1.02;;
23680;SDS011;62915;50.832;4.462;2023-10-19T13:10:39;4.57;;;1.30;;
23680;SDS011;62915;50.832;4.462;2023-10-19T13:13:08;4.32;;;1.02;;
23680;SDS011;62915;50.832;4.462;2023-10-19T13:15:37;2.58;;;0.93;;
23680;SDS011;62915;50.832;4.462;2023-10-19T13:18:05;3.38;;;1.25;;
23680;SDS011;62915;50.832;4.462;2023-10-19T13:20:32;6.63;;;1.50;;
23680;SDS011;62915;50.832;4.462;2023-10-19T13:23:02;3.22;;;1.13;;
23680;SDS011;62915;50.832;4.462;2023-10-19T13:25:35;5.47;;;1.30;;
23680;SDS011;62915;50.832;4.462;2023-10-19T13:28:11;2.95;;;1.17;;
23680;SDS011;62915;50.832;4.462;2023-10-19T13:30:41;1.95;;;0.88;;
23680;SDS011;62915;50.832;4.462;2023-10-19T13:33:12;2.95;;;1.30;;
23680;SDS011;62915;50.832;4.462;2023-10-19T13:35:39;3.20;;;1.02;;
23680;SDS011;62915;50.832;4.462;2023-10-19T13:38:10;2.35;;;0.75;;
23680;SDS011;62915;50.832;4.462;2023-10-19T13:40:39;6.32;;;1.50;;
23680;SDS011;62915;50.832;4.462;2023-10-19T13:43:06;6.18;;;1.30;;
23680;SDS011;62915;50.832;4.462;2023-10-19T13:45:36;6.38;;;1.30;;
23680;SDS011;62915;50.832;4.462;2023-10-19T13:48:04;2.40;;;1.00;;
23680;SDS011;62915;50.832;4.462;2023-10-19T13:50:40;6.03;;;1.02;;
23680;SDS011;62915;50.832;4.462;2023-10-19T13:53:08;2.95;;;1.20;;
23680;SDS011;62915;50.832;4.462;2023-10-19T13:55:36;1.85;;;0.90;;
23680;SDS011;62915;50.832;4.462;2023-10-19T13:58:02;3.78;;;1.02;;
23680;SDS011;62915;50.832;4.462;2023-10-19T14:00:31;2.85;;;0.88;;
23680;SDS011;62915;50.832;4.462;2023-10-19T14:03:04;2.33;;;1.13;;
23680;SDS011;62915;50.832;4.462;2023-10-19T14:05:35;2.97;;;0.80;;
23680;SDS011;62915;50.832;4.462;2023-10-19T14:08:04;4.97;;;1.35;;
23680;SDS011;62915;50.832;4.462;2023-10-19T14:10:33;3.63;;;0.88;;
23680;SDS011;62915;50.832;4.462;2023-10-19T14:13:08;2.47;;;0.90;;
23680;SDS011;62915;50.832;4.462;2023-10-19T14:15:36;3.30;;;1.38;;
23680;SDS011;62915;50.832;4.462;2023-10-19T14:18:04;4.40;;;1.13;;
23680;SDS011;62915;50.832;4.462;2023-10-19T14:20:39;2.40;;;1.30;;
23680;SDS011;62915;50.832;4.462;2023-10-19T14:23:18;3.97;;;1.27;;
23680;SDS011;62915;50.832;4.462;2023-10-19T14:25:56;2.72;;;1.02;;
23680;SDS011;62915;50.832;4.462;2023-10-19T14:28:22;3.35;;;0.88;;
23680;SDS011;62915;50.832;4.462;2023-10-19T14:30:48;3.58;;;0.90;;
23680;SDS011;62915;50.832;4.462;2023-10-19T14:33:17;1.33;;;0.90;;
23680;SDS011;62915;50.832;4.462;2023-10-19T14:35:47;1.52;;;0.88;;
23680;SDS011;62915;50.832;4.462;2023-10-19T14:38:13;2.42;;;0.98;;
23680;SDS011;62915;50.832;4.462;2023-10-19T14:40:40;2.28;;;0.80;;
23680;SDS011;62915;50.832;4.462;2023-10-19T14:43:13;3.83;;;1.02;;
23680;SDS011;62915;50.832;4.462;2023-10-19T14:45:40;2.58;;;1.00;;
23680;SDS011;62915;50.832;4.462;2023-10-19T14:48:16;4.20;;;1.00;;
23680;SDS011;62915;50.832;4.462;2023-10-19T14:50:57;1.77;;;0.98;;
23680;SDS011;62915;50.832;4.462;2023-10-19T14:53:23;4.30;;;1.00;;
23680;SDS011;62915;50.832;4.462;2023-10-19T14:55:49;2.42;;;1.05;;
23680;SDS011;62915;50.832;4.462;2023-10-19T14:58:21;5.70;;;1.42;;
23680;SDS011;62915;50.832;4.462;2023-10-19T15:00:47;2.60;;;0.80;;
23680;SDS011;62915;50.832;4.462;2023-10-19T15:03:24;1.40;;;0.88;;
23680;SDS011;62915;50.832;4.462;2023-10-19T15:05:51;2.28;;;1.13;;
23680;SDS011;62915;50.832;4.462;2023-10-19T15:08:27;2.67;;;0.88;;
23680;SDS011;62915;50.832;4.462;2023-10-19T15:11:06;2.67;;;0.80;;
23680;SDS011;62915;50.832;4.462;2023-10-19T15:13:32;3.53;;;1.30;;
23680;SDS011;62915;50.832;4.462;2023-10-19T15:16:07;3.53;;;0.90;;
23680;SDS011;62915;50.832;4.462;2023-10-19T15:18:34;3.13;;;0.88;;
23680;SDS011;62915;50.832;4.462;2023-10-19T15:21:12;3.58;;;1.05;;
23680;SDS011;62915;50.832;4.462;2023-10-19T15:23:42;5.25;;;1.00;;